Adrian, OH

7:53 PM EDT on March 26, 2015 (GMT -0400)
Forest Lake | | Change Station
CLOSE
Current Station
Personal Weather Station
Location: Findlay, OH
Elevation: 778 ft
Nearby Weather Stations

Elev 778 ft 41.05 °N, 83.58 °W | Updated 1 minute ago

Overcast
Overcast
41.0 °F
Feels Like 38 °F
N
4.3
Wind Variable Wind from West
Gusts 7.0 mph

Today
High -- | Low -- °F
--% Chance of Precip.
Yesterday
High -- | Low -- °F
Precip. -- in
7:27 AM 7:51 PM
Waxing Crescent, 47% visible
Pressure 29.88 in
Visibility 10.0 miles
Clouds Few 4600 ft
Windchill 38 °F
Dew Point 32 °F
Humidity 69%
Rainfall 0.32 in
Snow Depth Not available.
UV 0 out of 12
Pollen .70 out of 12
Air Quality Not available.
Flu Activity Not available.
METAR KFDY 262253Z AUTO 28010KT 10SM FEW046 06/M01 A2988 RMK AO2 SLP118 T00561011

More Conditions Fewer Conditions

Pressure 29.88 in
Visibility 10.0 miles
Clouds Few 4600 ft
Windchill 38 °F
Dew Point 32 °F
Humidity 69%
Rainfall 0.32 in
Snow Depth Not available.
UV 0 out of 12
Pollen .70 out of 12
Air Quality Not available.
Flu Activity Not available.
METAR KFDY 262253Z AUTO 28010KT 10SM FEW046 06/M01 A2988 RMK AO2 SLP118 T00561011

More Conditions Fewer Conditions

10-Day Weather Forecast

Almanac

Astronomy

Mar. 26, 2015 Rise Set
Actual Time
Civil Twilight
Nautical Twilight
Astronomical Twilight
Moon
Length of Visible Light
Length of Day
Tomorrow will be .
, % of the Moon is Illuminated

Today's Extremes

State Highs State Lows

Community

WunderPhotos

Upload Photos

1,808,643 photos uploaded!

WunderBlogs® & News

Nearby

Air Quality

  Air Quality AQ Index Pollutant
Not available.

Snow Depth

Station Depth Elevation

Earthquake Activity

City Distance Mag. Time & Date
Minimum magnitude displayed is 2.5.

Coastal Water Temperatures

Place Temperature

Stations

Nearby Weather Stations

Station Location Temp. Windchill Dew Point Humidity Wind Precip. Elev Updated Type